Aral'sk, Kazakhstan
Current Conditions -  °F | °C
As of 10:00 PM on Friday 31 Oct 2014 (Local Time) from UAOO Reporting Station
Clear Clear  
Wind Chill: 29°   Ceiling: Unl
Heat Index: 36°   Visibility: 6mi
Dew Point: 28°   Wind: 9mph
Humidity: 75%   Direction: 70°ENE
Pressure: 30.24"   Gusts: NA
Location:  46.78°N, 61.65°E
Report Text: UAOO 311700Z 07004MPS CAVOK 02/M02 Q1024 NOSIG RMK QFE756/1008
Loading
Personal Weather Stations






























Interactive Weather Map
Tropical Storm Tracking
New forecast layout! Learn more

10-Day Weather Forecast

Advertisements
Track Severe Weather on mobile